Time;durP1;ratioP1;P1;durP2;ratioP2;P2;SDS_P1;SDS_P2;PMS_P1;PMS_P2;Temp;Humidity;BMP_temperature;BMP_pressure;BME280_temperature;BME280_humidity;BME280_pressure;Samples;Min_cycle;Max_cycle;Signal;HPM_P1;HPM_P2
2021/08/23 04:01:44;;;;;;;1.70;1.60;;;13.30;96.30;;;;;;5313811;23;20509;-76
2021/08/23 04:04:10;;;;;;;2.63;1.77;;;13.30;96.30;;;;;;4935698;29;20428;-75
2021/08/23 04:06:43;;;;;;;3.67;1.60;;;13.30;96.30;;;;;;4937583;29;20172;-77
2021/08/23 04:09:09;;;;;;;1.90;1.50;;;13.30;96.30;;;;;;4937569;29;20195;-75
2021/08/23 04:11:34;;;;;;;1.63;1.30;;;13.20;96.30;;;;;;4933999;29;20486;-77
2021/08/23 04:14:00;;;;;;;1.70;1.60;;;13.20;96.30;;;;;;4939533;29;20175;-78
2021/08/23 04:16:25;;;;;;;1.60;1.30;;;13.30;96.30;;;;;;4943421;29;20250;-76
2021/08/23 04:18:50;;;;;;;1.40;1.30;;;13.30;96.30;;;;;;4947030;29;20184;-78
2021/08/23 04:57:23;;;;;;;2.50;2.30;;;13.60;96.30;;;;;;4914398;29;20472;-79
2021/08/23 04:59:49;;;;;;;2.37;2.17;;;13.60;96.30;;;;;;4914983;29;20416;-80
2021/08/23 05:02:14;;;;;;;2.30;2.10;;;13.60;96.30;;;;;;4914232;29;20261;-78
2021/08/23 05:04:40;;;;;;;2.27;2.07;;;13.70;96.30;;;;;;4916366;29;20179;-79
2021/08/23 05:07:05;;;;;;;4.50;2.07;;;13.70;96.30;;;;;;4908530;29;20688;-80
2021/08/23 05:09:31;;;;;;;2.30;2.10;;;13.70;96.30;;;;;;4895814;29;20169;-79
2021/08/23 05:11:56;;;;;;;5.10;2.30;;;13.80;96.30;;;;;;4897081;29;20207;-79
2021/08/23 05:14:21;;;;;;;2.07;1.87;;;13.80;96.30;;;;;;4898333;29;20705;-80
2021/08/23 05:16:47;;;;;;;2.73;2.20;;;13.70;96.30;;;;;;4897575;29;20188;-79
2021/08/23 05:19:12;;;;;;;2.40;2.20;;;13.80;96.30;;;;;;4898943;29;20606;-77
2021/08/23 05:21:38;;;;;;;2.50;1.80;;;13.80;96.30;;;;;;4902123;29;20217;-74
2021/08/23 05:24:04;;;;;;;1.70;1.60;;;13.90;96.30;;;;;;4934291;28;20180;-73
2021/08/23 05:26:29;;;;;;;1.83;1.73;;;13.80;96.30;;;;;;4900108;29;20196;-72
2021/08/23 05:28:55;;;;;;;2.03;1.77;;;13.90;96.30;;;;;;4901248;29;20200;-72
2021/08/23 05:31:22;;;;;;;2.40;2.00;;;13.90;96.30;;;;;;4903736;29;20200;-74
2021/08/23 05:33:49;;;;;;;2.00;1.90;;;13.80;96.30;;;;;;4905598;29;20193;-73
2021/08/23 05:36:14;;;;;;;2.03;1.80;;;13.80;96.30;;;;;;4896532;29;20421;-77
2021/08/23 05:38:40;;;;;;;2.30;2.10;;;13.80;96.30;;;;;;4899793;29;20527;-77
2021/08/23 05:41:06;;;;;;;1.70;1.60;;;13.80;96.30;;;;;;4899530;29;20211;-78
2021/08/23 05:43:31;;;;;;;3.43;1.83;;;13.70;96.30;;;;;;4899811;29;20181;-78
2021/08/23 05:45:58;;;;;;;1.87;1.63;;;13.70;96.30;;;;;;4899160;29;20188;-76
2021/08/23 05:48:23;;;;;;;2.27;1.73;;;13.70;96.30;;;;;;4899792;29;20173;-73
2021/08/23 05:50:49;;;;;;;3.23;1.97;;;13.70;96.30;;;;;;4898135;29;20986;-74
2021/08/23 05:53:14;;;;;;;2.70;2.30;;;13.70;96.30;;;;;;4897610;29;20177;-75
2021/08/23 05:55:40;;;;;;;1.80;1.70;;;13.60;96.30;;;;;;4899613;29;20241;-75
2021/08/23 05:58:06;;;;;;;2.30;1.70;;;13.60;96.30;;;;;;4899139;29;20173;-75
2021/08/23 06:00:31;;;;;;;3.27;1.53;;;13.60;96.30;;;;;;4899262;29;20968;-74
2021/08/23 06:02:57;;;;;;;2.60;1.93;;;13.60;96.30;;;;;;4898919;29;20180;-74
2021/08/23 06:05:22;;;;;;;5.17;1.87;;;13.60;96.30;;;;;;4899421;29;20181;-73
2021/08/23 06:07:48;;;;;;;3.23;1.87;;;13.60;96.30;;;;;;4898842;29;20184;-74
2021/08/23 06:10:13;;;;;;;3.20;1.60;;;13.70;96.30;;;;;;4899280;29;21118;-75
2021/08/23 06:12:40;;;;;;;1.60;1.50;;;13.70;96.30;;;;;;4898784;29;20178;-74
2021/08/23 06:15:06;;;;;;;3.20;1.87;;;13.70;96.30;;;;;;4899253;29;20205;-75
2021/08/23 06:17:31;;;;;;;1.90;1.80;;;13.60;96.30;;;;;;4899633;29;20444;-78
2021/08/23 06:19:57;;;;;;;3.33;1.60;;;13.60;96.30;;;;;;4899148;29;20895;-77
2021/08/23 06:22:22;;;;;;;2.07;1.80;;;13.60;96.30;;;;;;4897163;29;20208;-77
2021/08/23 06:24:52;;;;;;;3.80;1.63;;;13.60;96.30;;;;;;4898566;29;20185;-74
2021/08/23 06:27:18;;;;;;;5.00;1.67;;;13.50;96.30;;;;;;4897182;29;20169;-73
2021/08/23 06:29:44;;;;;;;2.07;1.70;;;13.50;96.30;;;;;;4899557;29;20429;-74
2021/08/23 06:32:09;;;;;;;2.00;1.70;;;13.50;96.30;;;;;;4898680;29;20487;-75
2021/08/23 06:34:35;;;;;;;4.83;2.10;;;13.50;96.30;;;;;;4898498;29;20355;-75
2021/08/23 06:37:00;;;;;;;2.77;1.47;;;13.60;96.30;;;;;;4899560;29;20181;-74
2021/08/23 06:39:26;;;;;;;2.60;1.83;;;13.60;96.30;;;;;;4899039;29;20189;-75
2021/08/23 06:41:51;;;;;;;2.03;1.50;;;13.60;96.30;;;;;;4898456;29;20220;-75
2021/08/23 06:44:17;;;;;;;2.30;1.40;;;13.60;96.30;;;;;;4897455;29;20280;-74
2021/08/23 06:46:42;;;;;;;1.90;1.20;;;13.60;96.30;;;;;;4898591;29;20252;-75
2021/08/23 06:49:08;;;;;;;1.90;1.37;;;13.70;96.30;;;;;;4898491;29;20260;-75
2021/08/23 06:51:33;;;;;;;4.10;1.53;;;13.70;96.30;;;;;;4896748;29;20211;-74
2021/08/23 06:54:00;;;;;;;1.53;1.20;;;13.70;96.30;;;;;;4899032;29;20221;-75
2021/08/23 06:56:26;;;;;;;1.40;1.20;;;13.80;96.30;;;;;;4898821;29;20189;-75
2021/08/23 06:58:52;;;;;;;1.30;1.00;;;13.80;96.30;;;;;;4898612;29;20422;-76
2021/08/23 07:01:17;;;;;;;2.23;1.53;;;13.80;96.30;;;;;;4898120;29;20467;-75
2021/08/23 07:03:43;;;;;;;2.23;1.20;;;13.90;96.30;;;;;;4898062;29;20173;-75
2021/08/23 07:06:08;;;;;;;1.43;1.20;;;13.90;96.30;;;;;;4898775;29;20915;-76
2021/08/23 07:08:34;;;;;;;2.40;1.27;;;13.90;96.30;;;;;;4898795;29;20180;-75
2021/08/23 07:11:01;;;;;;;3.70;1.30;;;13.90;96.30;;;;;;4898426;29;20602;-75
2021/08/23 07:13:28;;;;;;;2.00;1.00;;;14.00;96.30;;;;;;4897440;29;20271;-75
2021/08/23 07:15:53;;;;;;;1.10;1.00;;;14.00;96.30;;;;;;4898938;29;20977;-76
2021/08/23 07:18:19;;;;;;;2.00;0.73;;;14.00;96.30;;;;;;4898821;29;20445;-77
2021/08/23 07:20:44;;;;;;;1.20;0.87;;;14.00;96.30;;;;;;4902359;29;20218;-77
2021/08/23 07:23:10;;;;;;;1.47;1.00;;;14.00;96.30;;;;;;4899484;29;20181;-75
2021/08/23 07:25:35;;;;;;;1.30;1.10;;;14.00;96.30;;;;;;4898750;29;20257;-75
2021/08/23 07:28:01;;;;;;;1.10;0.90;;;14.00;96.30;;;;;;4897186;29;20177;-75
2021/08/23 07:30:28;;;;;;;1.93;0.90;;;14.10;96.30;;;;;;4898437;29;20669;-76
2021/08/23 07:32:53;;;;;;;1.57;0.83;;;14.10;96.30;;;;;;4898058;29;20177;-76
2021/08/23 07:35:19;;;;;;;1.00;0.80;;;14.10;96.30;;;;;;4898517;29;20457;-76
2021/08/23 07:37:46;;;;;;;0.80;0.60;;;14.10;96.30;;;;;;4898411;29;20177;-75
2021/08/23 07:40:12;;;;;;;0.90;0.60;;;14.10;96.30;;;;;;4897899;29;20236;-76
2021/08/23 07:42:38;;;;;;;0.87;0.70;;;14.20;96.30;;;;;;4897515;29;20409;-76
2021/08/23 07:45:03;;;;;;;0.90;0.70;;;14.10;96.30;;;;;;4897987;29;20477;-75
2021/08/23 07:47:29;;;;;;;3.00;0.70;;;14.10;96.30;;;;;;4898019;29;20606;-76
2021/08/23 07:49:54;;;;;;;0.80;0.53;;;14.20;96.30;;;;;;4896598;29;20204;-77
2021/08/23 07:52:21;;;;;;;0.90;0.50;;;14.20;96.30;;;;;;4897712;29;20288;-78
2021/08/23 07:54:47;;;;;;;0.90;0.60;;;14.10;96.30;;;;;;4899301;29;20169;-77
2021/08/23 07:57:12;;;;;;;1.83;0.60;;;14.20;96.30;;;;;;4898486;29;20809;-78
2021/08/23 07:59:38;;;;;;;0.80;0.57;;;14.20;96.30;;;;;;4897759;29;20235;-77
2021/08/23 08:02:03;;;;;;;1.00;0.50;;;14.30;96.30;;;;;;4897079;29;20787;-77
2021/08/23 08:04:29;;;;;;;2.50;0.67;;;14.40;96.30;;;;;;4897441;29;20236;-77
2021/08/23 08:06:55;;;;;;;1.10;0.60;;;14.40;96.30;;;;;;4896430;29;20173;-76
2021/08/23 08:09:20;;;;;;;0.90;0.67;;;14.60;96.30;;;;;;4896479;29;21000;-77
2021/08/23 08:11:46;;;;;;;0.90;0.60;;;14.60;96.30;;;;;;4896915;29;20205;-74
2021/08/23 08:14:11;;;;;;;0.90;0.60;;;14.70;96.30;;;;;;4897430;29;20667;-76
2021/08/23 08:16:37;;;;;;;0.80;0.60;;;14.70;96.30;;;;;;4898677;29;20208;-78
2021/08/23 08:19:02;;;;;;;0.80;0.50;;;14.70;96.30;;;;;;4897221;29;20193;-78
2021/08/23 08:21:28;;;;;;;0.80;0.40;;;14.70;96.30;;;;;;4896990;29;20269;-78
2021/08/23 08:23:54;;;;;;;0.80;0.50;;;14.80;96.30;;;;;;4898403;29;20585;-78
2021/08/23 08:26:21;;;;;;;0.80;0.50;;;14.80;96.30;;;;;;4897667;29;20208;-78
2021/08/23 08:28:46;;;;;;;0.80;0.50;;;14.90;96.30;;;;;;4898806;29;20248;-79
2021/08/23 08:31:11;;;;;;;0.70;0.43;;;14.90;96.30;;;;;;4898094;29;21050;-79
2021/08/23 08:33:37;;;;;;;3.73;0.60;;;15.00;96.30;;;;;;4897288;29;20187;-78
2021/08/23 08:36:03;;;;;;;0.80;0.50;;;14.90;96.30;;;;;;4898049;29;20225;-78
2021/08/23 08:38:28;;;;;;;0.80;0.60;;;15.00;96.30;;;;;;4898398;29;20188;-78
2021/08/23 08:40:58;;;;;;;1.00;0.80;;;15.00;96.30;;;;;;4897141;29;20236;-78
2021/08/23 08:43:24;;;;;;;1.20;0.87;;;15.00;96.30;;;;;;4898740;29;20181;-79
2021/08/23 08:45:50;;;;;;;1.20;1.10;;;15.00;96.30;;;;;;4899162;29;20976;-80
2021/08/23 08:48:16;;;;;;;2.50;1.57;;;15.00;96.30;;;;;;4900148;29;20444;-79
2021/08/23 08:50:42;;;;;;;1.73;1.50;;;15.00;96.30;;;;;;4900798;29;20200;-79
2021/08/23 08:53:07;;;;;;;1.90;1.60;;;15.00;96.30;;;;;;4900621;29;20451;-80
2021/08/23 08:55:36;;;;;;;2.87;1.70;;;15.00;96.30;;;;;;4899077;29;20192;-78
2021/08/23 08:58:06;;;;;;;2.00;1.20;;;15.10;96.30;;;;;;4898421;29;20208;-80
2021/08/23 09:00:38;;;;;;;1.20;0.80;;;15.10;96.30;;;;;;4900149;29;20433;-79
2021/08/23 09:03:05;;;;;;;0.97;0.70;;;15.20;96.30;;;;;;4898765;29;20464;-78
2021/08/23 09:05:42;;;;;;;1.00;0.70;;;15.10;96.30;;;;;;4898431;29;20413;-78
2021/08/23 09:08:08;;;;;;;1.00;0.60;;;15.20;96.30;;;;;;4896842;29;20752;-76
2021/08/23 09:10:39;;;;;;;1.13;0.57;;;15.30;96.30;;;;;;4896793;29;20433;-76
2021/08/23 09:13:10;;;;;;;1.20;0.60;;;15.40;96.30;;;;;;4896363;29;20424;-76
2021/08/23 09:15:37;;;;;;;0.80;0.50;;;15.50;96.30;;;;;;4895646;29;20513;-75
2021/08/23 09:18:07;;;;;;;0.80;0.50;;;15.50;96.30;;;;;;4895114;29;20522;-76
2021/08/23 09:20:34;;;;;;;0.70;0.40;;;15.50;96.30;;;;;;4896718;29;20460;-75
2021/08/23 09:23:11;;;;;;;0.80;0.40;;;15.40;96.30;;;;;;4896144;29;20413;-75
2021/08/23 09:25:37;;;;;;;0.80;0.40;;;15.30;96.30;;;;;;4896829;29;20424;-75
2021/08/23 09:28:04;;;;;;;0.80;0.47;;;15.30;96.30;;;;;;4896774;29;20413;-77
2021/08/23 09:30:30;;;;;;;0.70;0.40;;;15.20;96.30;;;;;;4896610;29;20168;-75
2021/08/23 09:32:58;;;;;;;1.20;0.60;;;15.20;96.30;;;;;;4896119;29;20440;-75
2021/08/23 09:35:29;;;;;;;1.20;0.60;;;15.10;96.30;;;;;;4896720;29;20965;-77
2021/08/23 09:37:55;;;;;;;0.80;0.50;;;15.20;96.30;;;;;;4896663;29;20409;-77
2021/08/23 09:40:34;;;;;;;1.40;0.60;;;15.20;96.30;;;;;;4895040;29;20576;-76
2021/08/23 09:43:10;;;;;;;1.90;0.50;;;15.20;96.30;;;;;;4896056;29;20177;-77
2021/08/23 09:45:36;;;;;;;1.00;0.40;;;15.20;96.30;;;;;;4896751;29;20413;-76
2021/08/23 09:48:04;;;;;;;0.70;0.40;;;15.30;96.30;;;;;;4896630;29;20417;-77
2021/08/23 09:50:48;;;;;;;1.30;0.50;;;15.40;96.30;;;;;;4896458;29;20181;-76
2021/08/23 09:53:19;;;;;;;0.90;0.43;;;15.30;96.30;;;;;;4894866;29;20413;-76
2021/08/23 09:55:48;;;;;;;0.70;0.40;;;15.30;96.30;;;;;;4896364;29;20456;-74
2021/08/23 09:58:14;;;;;;;0.70;0.40;;;15.30;96.30;;;;;;4896541;29;20423;-76
2021/08/23 10:00:42;;;;;;;0.80;0.50;;;15.40;96.30;;;;;;4895910;29;20555;-76
2021/08/23 10:03:15;;;;;;;0.70;0.40;;;15.60;96.30;;;;;;4894771;29;20485;-77
2021/08/23 10:05:47;;;;;;;2.80;0.50;;;15.70;96.30;;;;;;4897053;29;20406;-77
2021/08/23 10:08:16;;;;;;;1.10;0.40;;;15.90;96.30;;;;;;4897578;29;20489;-77
2021/08/23 10:10:43;;;;;;;0.80;0.50;;;16.00;96.30;;;;;;4905884;29;20444;-77
2021/08/23 10:13:09;;;;;;;1.23;0.50;;;16.10;96.30;;;;;;4915067;29;20829;-77
2021/08/23 10:15:37;;;;;;;0.73;0.40;;;16.30;96.30;;;;;;4896606;29;20417;-77
2021/08/23 10:18:02;;;;;;;1.30;0.50;;;16.30;96.30;;;;;;4898773;29;20185;-77
2021/08/23 10:28:20;;;;;;;0.80;0.50;;;17.20;96.30;;;;;;4935715;29;20478;-76
2021/08/23 10:30:47;;;;;;;0.90;0.50;;;17.20;96.30;;;;;;4934476;29;20435;-75
2021/08/23 10:33:18;;;;;;;1.63;0.57;;;17.00;96.30;;;;;;4917411;29;20411;-75
2021/08/23 10:35:52;;;;;;;0.80;0.50;;;16.60;96.30;;;;;;4918510;29;20421;-75
2021/08/23 10:38:24;;;;;;;0.90;0.50;;;16.30;96.30;;;;;;4916799;29;20475;-77
2021/08/23 10:41:06;;;;;;;0.90;0.57;;;16.20;96.30;;;;;;4917833;29;20459;-76
2021/08/23 10:43:46;;;;;;;0.90;0.60;;;16.10;96.30;;;;;;4918069;29;20467;-76
2021/08/23 10:46:26;;;;;;;0.80;0.60;;;16.10;96.30;;;;;;4918078;29;20480;-76
2021/08/23 10:48:53;;;;;;;1.03;0.60;;;16.20;96.30;;;;;;4918010;29;20397;-77
2021/08/23 10:51:31;;;;;;;0.80;0.50;;;16.30;96.30;;;;;;4917097;29;20436;-77
2021/08/23 10:53:57;;;;;;;1.07;0.60;;;16.40;96.30;;;;;;4917426;29;20400;-77
2021/08/23 10:56:32;;;;;;;1.17;0.60;;;16.40;96.30;;;;;;4916278;29;20573;-77
2021/08/23 10:58:58;;;;;;;0.80;0.63;;;16.50;96.30;;;;;;4917367;29;20419;-76
2021/08/23 11:01:24;;;;;;;1.77;0.60;;;16.40;96.30;;;;;;4916267;29;20460;-77
2021/08/23 11:04:04;;;;;;;0.80;0.63;;;16.40;96.30;;;;;;4924895;29;20177;-77
2021/08/23 11:06:32;;;;;;;4.70;0.63;;;16.40;96.30;;;;;;4915785;29;20913;-77
2021/08/23 11:09:09;;;;;;;1.80;0.97;;;16.40;96.30;;;;;;4931974;29;20948;-77
2021/08/23 11:11:39;;;;;;;0.80;0.70;;;16.30;96.30;;;;;;4916590;29;20432;-77
2021/08/23 11:14:21;;;;;;;0.90;0.70;;;16.40;96.30;;;;;;4920660;29;20515;-79
2021/08/23 11:16:54;;;;;;;0.90;0.80;;;16.40;96.30;;;;;;4935930;29;20411;-77
2021/08/23 11:19:21;;;;;;;1.17;1.00;;;16.40;96.30;;;;;;4926503;29;20416;-78
2021/08/23 11:21:58;;;;;;;2.10;0.77;;;16.40;96.30;;;;;;4916503;29;20483;-74
2021/08/23 11:24:32;;;;;;;0.90;0.60;;;16.00;96.30;;;;;;4921631;29;20415;-74
2021/08/23 11:27:03;;;;;;;0.80;0.50;;;15.50;96.30;;;;;;4916835;29;20432;-76
2021/08/23 11:29:38;;;;;;;1.00;0.57;;;15.30;96.30;;;;;;4924975;29;20495;-76
2021/08/23 11:32:07;;;;;;;1.17;0.60;;;15.20;96.30;;;;;;4930984;29;20447;-77
2021/08/23 11:34:33;;;;;;;0.90;0.60;;;15.10;96.30;;;;;;4915554;29;20932;-77
2021/08/23 11:37:04;;;;;;;0.80;0.50;;;14.90;96.30;;;;;;4931579;29;20491;-76
2021/08/23 11:39:34;;;;;;;0.80;0.50;;;14.80;96.30;;;;;;4936092;29;20630;-75
2021/08/23 11:42:02;;;;;;;0.80;0.50;;;14.80;96.30;;;;;;4928579;29;20459;-76
2021/08/23 11:44:29;;;;;;;0.80;0.50;;;14.60;96.30;;;;;;4930630;28;20432;-78
2021/08/23 11:47:03;;;;;;;0.80;0.50;;;14.70;96.30;;;;;;4921494;29;20432;-76
2021/08/23 11:49:30;;;;;;;1.00;0.60;;;14.80;96.30;;;;;;4936324;29;20486;-76
2021/08/23 11:51:56;;;;;;;0.80;0.53;;;14.90;96.30;;;;;;4934345;29;20443;-76
2021/08/23 11:54:21;;;;;;;0.80;0.60;;;15.00;96.30;;;;;;4917181;29;20928;-76
2021/08/23 11:56:47;;;;;;;0.90;0.67;;;15.00;96.30;;;;;;4916937;29;20204;-77
2021/08/23 11:59:13;;;;;;;0.90;0.60;;;15.00;96.30;;;;;;4916850;29;20173;-79
2021/08/23 12:01:39;;;;;;;0.90;0.60;;;15.10;96.30;;;;;;4915913;29;20211;-75
2021/08/23 12:04:04;;;;;;;0.90;0.60;;;15.00;96.30;;;;;;4915477;29;20424;-77
2021/08/23 12:06:34;;;;;;;1.00;0.50;;;14.80;96.30;;;;;;4915155;29;20180;-78
2021/08/23 12:09:01;;;;;;;0.90;0.50;;;14.80;96.30;;;;;;4916654;29;20637;-76
2021/08/23 12:11:26;;;;;;;0.80;0.50;;;14.80;96.30;;;;;;4926695;29;20530;-75
2021/08/23 12:13:52;;;;;;;0.87;0.60;;;14.90;96.30;;;;;;4935594;29;20582;-76
2021/08/23 12:16:18;;;;;;;0.80;0.50;;;14.80;96.30;;;;;;4935299;29;20172;-76
2021/08/23 12:18:49;;;;;;;0.90;0.60;;;14.80;96.30;;;;;;4935442;29;20168;-76
2021/08/23 12:21:17;;;;;;;0.90;0.70;;;14.70;96.30;;;;;;4933722;29;20463;-76
2021/08/23 12:24:04;;;;;;;4.00;0.60;;;14.60;96.30;;;;;;4934917;29;20464;-75
2021/08/23 12:26:30;;;;;;;1.30;0.70;;;14.60;96.30;;;;;;4948436;29;20930;-76
2021/08/23 12:28:59;;;;;;;2.27;0.83;;;14.40;96.30;;;;;;4954856;29;20418;-75
2021/08/23 12:31:24;;;;;;;5.73;1.03;;;14.20;96.30;;;;;;4953482;28;20912;-76
2021/08/23 12:33:50;;;;;;;1.40;1.20;;;14.10;96.30;;;;;;4954231;28;20421;-75
2021/08/23 12:36:16;;;;;;;1.13;1.00;;;14.10;96.30;;;;;;4954901;29;20187;-76
2021/08/23 12:38:43;;;;;;;1.53;1.17;;;14.00;96.30;;;;;;4949214;28;20179;-74
2021/08/23 12:41:09;;;;;;;1.33;1.00;;;13.90;96.30;;;;;;4933121;29;20286;-75
2021/08/23 12:43:36;;;;;;;1.20;1.10;;;13.80;96.30;;;;;;4933634;29;20519;-76
2021/08/23 12:46:03;;;;;;;1.40;1.30;;;13.80;96.30;;;;;;4934885;29;20183;-73
2021/08/23 12:48:29;;;;;;;1.17;1.07;;;13.80;96.30;;;;;;4933004;29;20419;-72
2021/08/23 12:50:56;;;;;;;4.40;1.30;;;13.80;96.30;;;;;;4934607;29;20579;-72
2021/08/23 12:53:22;;;;;;;3.00;1.30;;;13.60;96.30;;;;;;4934353;29;20439;-71
2021/08/23 12:55:47;;;;;;;126.13;5.93;;;13.60;96.30;;;;;;4934510;29;20466;-71
2021/08/23 12:58:13;;;;;;;76.70;3.70;;;13.60;96.30;;;;;;4927380;29;20184;-71
2021/08/23 13:00:38;;;;;;;519.67;16.70;;;13.50;96.30;;;;;;4925240;29;20667;-70
2021/08/23 13:03:04;;;;;;;1111.93;33.30;;;13.50;96.30;;;;;;4921221;29;20179;-71
2021/08/23 13:05:29;;;;;;;639.73;17.43;;;13.40;96.30;;;;;;4917819;29;20647;-73
2021/08/23 13:07:55;;;;;;;612.80;20.80;;;13.40;96.30;;;;;;4915474;29;20218;-76
2021/08/23 13:10:20;;;;;;;276.90;10.27;;;13.30;96.30;;;;;;4915215;29;20188;-73
2021/08/23 13:12:46;;;;;;;383.80;15.57;;;13.30;96.30;;;;;;4915175;29;20627;-74
2021/08/23 13:15:11;;;;;;;180.07;7.40;;;13.20;96.30;;;;;;4915398;29;20180;-73
2021/08/23 13:17:37;;;;;;;87.83;4.60;;;13.20;96.30;;;;;;4915393;29;20255;-73
2021/08/23 13:20:05;;;;;;;102.67;5.37;;;13.20;96.30;;;;;;4915308;29;20180;-72
2021/08/23 13:22:30;;;;;;;47.87;3.50;;;13.20;96.30;;;;;;4914572;29;20231;-73
2021/08/23 13:24:56;;;;;;;13.00;2.20;;;13.10;96.30;;;;;;4917052;29;20444;-73
2021/08/23 13:27:21;;;;;;;78.63;3.87;;;13.10;96.30;;;;;;4953375;29;20221;-73
2021/08/23 13:29:47;;;;;;;366.67;12.57;;;13.10;96.30;;;;;;4953427;28;20643;-73
2021/08/23 13:32:13;;;;;;;373.60;13.90;;;13.00;96.30;;;;;;4943152;28;20676;-76
2021/08/23 13:34:38;;;;;;;709.63;24.53;;;13.00;96.30;;;;;;4915273;29;20184;-74
2021/08/23 13:37:03;;;;;;;533.80;18.40;;;12.90;96.30;;;;;;4915652;29;20180;-74
2021/08/23 13:39:29;;;;;;;1077.30;36.83;;;12.90;96.30;;;;;;4915349;29;20192;-74
2021/08/23 13:41:55;;;;;;;1167.40;38.03;;;13.00;96.30;;;;;;4913848;29;20210;-75
2021/08/23 13:44:20;;;;;;;1147.53;38.80;;;13.00;96.30;;;;;;4918138;29;20601;-76
2021/08/23 13:46:46;;;;;;;414.97;16.27;;;13.00;96.30;;;;;;4918151;29;20183;-76
2021/08/23 13:49:11;;;;;;;170.93;9.13;;;13.00;96.30;;;;;;4919036;29;20204;-75
2021/08/23 13:51:37;;;;;;;802.33;28.17;;;13.00;96.30;;;;;;4918359;29;20611;-76
2021/08/23 13:54:02;;;;;;;1064.43;36.93;;;13.10;96.30;;;;;;4919054;29;20185;-76
2021/08/23 13:56:28;;;;;;;1321.80;44.00;;;13.10;96.30;;;;;;4918965;29;20181;-78
2021/08/23 13:58:57;;;;;;;1283.00;40.13;;;13.00;96.30;;;;;;4918847;29;20637;-75
2021/08/23 14:01:26;;;;;;;872.87;28.97;;;13.00;96.30;;;;;;4918203;29;20565;-77
2021/08/23 14:03:52;;;;;;;1086.17;35.43;;;13.00;96.30;;;;;;4934722;29;20455;-77
2021/08/23 14:06:19;;;;;;;1052.10;32.70;;;13.00;96.30;;;;;;4918500;29;20400;-76
2021/08/23 14:08:44;;;;;;;323.43;12.03;;;13.00;96.30;;;;;;4918867;29;20176;-76
2021/08/23 14:11:10;;;;;;;12.73;3.40;;;13.00;96.30;;;;;;4932752;29;20456;-77
2021/08/23 14:13:35;;;;;;;3.53;2.93;;;12.90;96.30;;;;;;4918846;29;20644;-77
2021/08/23 14:16:01;;;;;;;4.53;2.40;;;13.00;96.30;;;;;;4917180;29;20768;-77
2021/08/23 14:18:26;;;;;;;2.40;2.20;;;13.00;96.30;;;;;;4921045;29;20180;-76
2021/08/23 14:20:52;;;;;;;2.60;2.40;;;13.00;96.30;;;;;;4918150;29;20574;-77
2021/08/23 14:23:18;;;;;;;2.47;2.27;;;13.00;96.30;;;;;;4916585;29;20187;-76
2021/08/23 14:25:45;;;;;;;1.60;1.50;;;13.10;96.30;;;;;;4919287;29;20416;-76
2021/08/23 14:28:12;;;;;;;1.50;1.40;;;13.10;96.30;;;;;;4919072;29;20176;-77
2021/08/23 14:30:38;;;;;;;1.63;1.53;;;13.10;96.30;;;;;;4917888;29;20850;-75
2021/08/23 14:33:04;;;;;;;2.43;1.30;;;13.20;96.30;;;;;;4923402;29;20451;-78
2021/08/23 14:35:30;;;;;;;1.03;0.93;;;13.20;96.30;;;;;;4936316;29;20172;-78
2021/08/23 14:37:55;;;;;;;1.10;0.70;;;13.20;96.30;;;;;;4935765;29;20823;-75
2021/08/23 14:40:21;;;;;;;1.10;1.00;;;13.30;96.30;;;;;;4935886;29;20179;-75
2021/08/23 14:42:47;;;;;;;1.00;0.90;;;13.30;96.30;;;;;;4936114;29;20246;-75
2021/08/23 14:45:13;;;;;;;1.20;0.73;;;13.30;96.30;;;;;;4936917;29;20168;-74
2021/08/23 14:47:39;;;;;;;1.00;0.90;;;13.30;96.30;;;;;;4936227;29;20447;-73
2021/08/23 14:50:06;;;;;;;1.30;1.20;;;13.20;96.30;;;;;;4935680;29;20503;-75
2021/08/23 14:52:31;;;;;;;1.50;1.40;;;13.20;96.30;;;;;;4936211;29;20643;-73
2021/08/23 14:54:56;;;;;;;1.50;1.40;;;13.10;96.30;;;;;;4935151;29;20959;-74
2021/08/23 14:57:22;;;;;;;1.30;1.20;;;13.00;96.30;;;;;;4936828;29;20183;-74
2021/08/23 14:59:48;;;;;;;2.50;1.93;;;13.00;96.30;;;;;;4936117;29;20187;-77
2021/08/23 15:02:14;;;;;;;2.47;1.67;;;12.90;96.30;;;;;;4930692;29;20266;-76
2021/08/23 15:04:39;;;;;;;4.80;2.03;;;12.90;96.30;;;;;;4936316;29;20183;-76
2021/08/23 15:07:05;;;;;;;4.30;2.30;;;12.90;96.30;;;;;;4934936;28;20419;-77
2021/08/23 15:09:31;;;;;;;23.60;2.90;;;12.80;96.30;;;;;;4935374;29;20186;-76
2021/08/23 15:11:57;;;;;;;17.27;3.17;;;12.80;96.30;;;;;;4934851;29;20733;-76
2021/08/23 15:14:23;;;;;;;2.40;2.20;;;12.80;96.30;;;;;;4935652;29;20197;-76
2021/08/23 15:16:48;;;;;;;3.37;2.87;;;12.80;96.30;;;;;;4934701;29;20948;-77
2021/08/23 15:19:14;;;;;;;10.30;2.73;;;12.70;96.30;;;;;;4928546;29;20191;-76
2021/08/23 15:21:40;;;;;;;19.20;3.50;;;12.70;96.30;;;;;;4931094;29;20211;-78
2021/08/23 15:24:06;;;;;;;121.17;7.17;;;12.60;96.30;;;;;;4936198;29;20183;-77
2021/08/23 15:26:31;;;;;;;119.93;7.63;;;12.60;96.30;;;;;;4935466;29;20970;-76
2021/08/23 15:28:57;;;;;;;8.77;3.77;;;12.60;96.30;;;;;;4933339;29;20434;-80
2021/08/23 15:31:22;;;;;;;3.23;3.00;;;12.60;96.30;;;;;;4934158;29;20411;-79
2021/08/23 15:33:48;;;;;;;14.27;4.50;;;12.50;96.30;;;;;;4936920;29;20208;-78
2021/08/23 15:36:13;;;;;;;47.97;7.00;;;12.40;96.30;;;;;;4934757;29;20190;-76
2021/08/23 15:38:39;;;;;;;32.60;7.07;;;12.40;96.30;;;;;;4935020;29;20650;-77
2021/08/23 15:41:05;;;;;;;28.43;7.17;;;12.40;96.30;;;;;;4935775;29;20218;-77
2021/08/23 15:43:32;;;;;;;10.60;7.20;;;12.30;96.30;;;;;;4935859;29;20179;-78
2021/08/23 15:45:58;;;;;;;6.40;5.80;;;12.30;96.30;;;;;;4936350;29;20180;-76
2021/08/23 15:48:23;;;;;;;5.27;4.77;;;12.30;96.30;;;;;;4936579;29;20503;-76
2021/08/23 15:50:49;;;;;;;4.47;4.07;;;12.30;96.30;;;;;;4937019;29;20319;-77
2021/08/23 15:53:15;;;;;;;4.37;3.97;;;12.30;96.30;;;;;;4936460;29;20179;-77
2021/08/23 15:55:42;;;;;;;4.13;3.83;;;12.30;96.30;;;;;;4936915;29;20567;-78
2021/08/23 15:58:07;;;;;;;4.43;4.00;;;12.30;96.30;;;;;;4936903;29;20195;-76
2021/08/23 16:00:33;;;;;;;3.87;3.47;;;12.30;96.30;;;;;;4932488;29;20778;-82
2021/08/23 16:02:58;;;;;;;3.00;2.80;;;12.30;96.30;;;;;;4916334;29;20204;-76
2021/08/23 16:05:24;;;;;;;4.43;2.70;;;12.30;96.30;;;;;;4917757;29;20187;-78
2021/08/23 16:07:50;;;;;;;4.10;2.90;;;12.30;96.30;;;;;;4917341;29;20179;-79
2021/08/23 16:10:16;;;;;;;2.90;2.40;;;12.30;96.30;;;;;;4917657;29;20255;-80
2021/08/23 16:12:42;;;;;;;3.40;2.20;;;12.30;96.30;;;;;;4923715;29;20183;-79
2021/08/23 16:15:10;;;;;;;2.63;2.03;;;12.30;96.30;;;;;;4927930;29;20420;-78
2021/08/23 16:17:37;;;;;;;2.17;2.00;;;12.30;96.30;;;;;;4929767;29;20438;-77
2021/08/23 16:20:04;;;;;;;3.80;2.30;;;12.30;96.30;;;;;;4927351;29;20415;-77
2021/08/23 16:22:30;;;;;;;2.00;1.80;;;12.30;96.30;;;;;;4936601;29;20459;-78
2021/08/23 16:24:55;;;;;;;2.13;1.90;;;12.30;96.30;;;;;;4937002;29;20867;-77
2021/08/23 16:27:21;;;;;;;4.53;1.70;;;12.30;96.30;;;;;;4935277;29;20195;-77
2021/08/23 16:29:46;;;;;;;2.70;1.93;;;12.30;96.30;;;;;;4935906;29;20576;-76
2021/08/23 16:32:12;;;;;;;2.23;2.03;;;12.30;96.30;;;;;;4936430;29;20231;-77
2021/08/23 16:34:38;;;;;;;1.83;1.73;;;12.30;96.30;;;;;;4938724;29;20172;-79
2021/08/23 16:37:03;;;;;;;2.33;2.13;;;12.30;96.30;;;;;;4935783;29;20182;-77
2021/08/23 16:39:29;;;;;;;3.73;1.70;;;12.30;96.30;;;;;;4933196;29;20659;-77
2021/08/23 16:41:56;;;;;;;1.60;1.50;;;12.30;96.30;;;;;;4925911;29;20212;-77
2021/08/23 16:44:22;;;;;;;1.37;1.27;;;12.30;96.30;;;;;;4915168;29;20187;-77
2021/08/23 16:46:48;;;;;;;1.83;1.30;;;12.30;96.30;;;;;;4914199;29;20424;-76
2021/08/23 16:49:16;;;;;;;1.70;1.60;;;12.30;96.30;;;;;;4926227;29;20696;-78
2021/08/23 16:51:42;;;;;;;12.63;1.73;;;12.20;96.30;;;;;;4931699;29;20459;-73
2021/08/23 16:54:08;;;;;;;1.70;1.60;;;12.30;96.30;;;;;;4932568;29;20979;-73
2021/08/23 16:56:33;;;;;;;5.90;1.57;;;12.30;96.30;;;;;;4933304;29;20502;-74
2021/08/23 16:58:59;;;;;;;2.70;1.10;;;12.30;96.30;;;;;;4932268;29;20184;-73
2021/08/23 17:01:25;;;;;;;1.20;0.90;;;12.30;96.30;;;;;;4931027;29;20254;-75
2021/08/23 17:03:50;;;;;;;3.83;1.00;;;12.30;96.30;;;;;;4921378;29;20299;-74
2021/08/23 17:06:16;;;;;;;1.13;1.00;;;12.20;96.30;;;;;;4926025;29;21636;-75
2021/08/23 17:08:41;;;;;;;1.67;1.00;;;12.20;96.30;;;;;;4924744;29;20187;-76
2021/08/23 17:11:07;;;;;;;2.17;1.07;;;12.10;96.30;;;;;;4922703;29;20253;-77
2021/08/23 17:13:32;;;;;;;1.33;1.10;;;12.10;96.30;;;;;;4923167;29;20239;-77
2021/08/23 17:15:58;;;;;;;1.57;1.30;;;12.10;96.30;;;;;;4926900;29;20211;-76
2021/08/23 17:18:26;;;;;;;4.93;1.27;;;12.00;96.30;;;;;;4924851;29;20187;-77
2021/08/23 17:20:52;;;;;;;3.27;1.33;;;12.00;96.30;;;;;;4929905;29;20207;-76
2021/08/23 17:23:18;;;;;;;1.23;1.13;;;12.00;96.30;;;;;;4925748;29;20440;-76
2021/08/23 17:25:44;;;;;;;3.90;1.37;;;12.00;96.30;;;;;;4930524;28;20463;-76